Time;durP1;ratioP1;P1;durP2;ratioP2;P2;SDS_P1;SDS_P2;PMS_P1;PMS_P2;Temp;Humidity;BMP_temperature;BMP_pressure;BME280_temperature;BME280_humidity;BME280_pressure;Samples;Min_cycle;Max_cycle;Signal;HPM_P1;HPM_P2
2024/04/10 00:00:54;;;;;;;;;;;6.30;99.90;;;;;;5463421;26;19928;-65
2024/04/10 00:03:22;;;;;;;;;;;6.20;99.90;;;;;;5440221;26;19960;-65
2024/04/10 00:05:58;;;;;;;;;;;6.10;99.90;;;;;;5429032;26;19929;-64
2024/04/10 00:08:25;;;;;;;;;;;6.10;99.90;;;;;;5464926;26;19940;-64
2024/04/10 00:10:57;;;;;;;;;;;6.10;99.90;;;;;;5441883;26;20009;-64
2024/04/10 00:13:24;;;;;;;;;;;6.10;99.90;;;;;;5452370;26;19935;-64
2024/04/10 00:16:07;;;;;;;;;;;6.10;99.90;;;;;;5472272;26;19932;-64
2024/04/10 00:18:35;;;;;;;;;;;6.10;99.90;;;;;;5440400;26;19957;-65
2024/04/10 00:21:02;;;;;;;;;;;6.10;99.90;;;;;;5453927;26;20296;-65
2024/04/10 00:23:28;;;;;;;;;;;6.10;99.90;;;;;;5443796;26;19935;-64
2024/04/10 00:25:59;;;;;;;;;;;6.00;99.90;;;;;;5461708;26;19935;-64
2024/04/10 00:28:29;;;;;;;;;;;6.10;99.90;;;;;;5466409;26;19932;-64
2024/04/10 00:30:56;;;;;;;;;;;6.00;99.90;;;;;;5462095;26;19928;-64
2024/04/10 00:33:23;;;;;;;;;;;6.00;99.90;;;;;;5402287;26;19955;-64
2024/04/10 00:35:57;;;;;;;;;;;6.00;99.90;;;;;;5480272;26;19928;-64
2024/04/10 00:38:26;;;;;;;;;;;6.00;99.90;;;;;;5465306;26;20380;-64
2024/04/10 00:40:54;;;;;;;;;;;6.00;99.90;;;;;;5474947;26;19928;-64
2024/04/10 00:43:27;;;;;;;;;;;6.00;99.90;;;;;;5455453;26;20391;-64
2024/04/10 00:45:59;;;;;;;;;;;6.00;99.90;;;;;;5477675;26;19943;-64
2024/04/10 00:48:26;;;;;;;;;;;6.00;99.90;;;;;;5469066;26;19954;-64
2024/04/10 00:50:53;;;;;;;;;;;6.00;99.90;;;;;;5469088;26;19928;-64
2024/04/10 00:53:20;;;;;;;;;;;6.00;99.90;;;;;;5471362;26;20367;-64
2024/04/10 00:55:47;;;;;;;;;;;6.00;99.90;;;;;;5459733;26;19954;-64
2024/04/10 00:58:14;;;;;;;;;;;5.90;99.90;;;;;;5440528;26;19935;-64
2024/04/10 01:00:41;;;;;;;;;;;5.90;99.90;;;;;;5464876;26;19929;-64
2024/04/10 01:03:09;;;;;;;;;;;5.90;99.90;;;;;;5463209;26;19949;-64
2024/04/10 01:05:36;;;;;;;;;;;5.90;99.90;;;;;;5473127;26;19928;-64
2024/04/10 01:08:05;;;;;;;;;;;5.90;99.90;;;;;;5417387;26;20435;-64
2024/04/10 01:10:32;;;;;;;;;;;5.90;99.90;;;;;;5470106;26;19928;-64
2024/04/10 01:13:00;;;;;;;;;;;5.90;99.90;;;;;;5471136;26;19928;-64
2024/04/10 01:15:27;;;;;;;;;;;5.90;99.90;;;;;;5478524;26;19956;-64
2024/04/10 01:17:58;;;;;;;;;;;5.90;99.90;;;;;;5468982;26;19939;-64
2024/04/10 01:20:25;;;;;;;;;;;5.90;99.90;;;;;;5459151;26;19929;-64
2024/04/10 01:22:52;;;;;;;;;;;5.90;99.90;;;;;;5465643;26;19944;-64
2024/04/10 01:25:19;;;;;;;;;;;5.90;99.90;;;;;;5453644;26;19932;-64
2024/04/10 01:27:46;;;;;;;;;;;5.90;99.90;;;;;;5458745;26;19928;-64
2024/04/10 01:30:18;;;;;;;;;;;5.90;99.90;;;;;;5457666;26;20291;-64
2024/04/10 01:32:44;;;;;;;;;;;5.90;99.90;;;;;;5472432;26;19936;-64
2024/04/10 01:35:16;;;;;;;;;;;5.90;99.90;;;;;;5476652;26;19993;-64
2024/04/10 01:37:43;;;;;;;;;;;6.00;99.90;;;;;;5475524;26;19943;-65
2024/04/10 01:40:10;;;;;;;;;;;5.90;99.90;;;;;;5447110;26;19935;-64
2024/04/10 01:42:42;;;;;;;;;;;5.90;99.90;;;;;;5449394;26;19997;-64
2024/04/10 01:45:09;;;;;;;;;;;6.00;99.90;;;;;;5454287;26;19940;-64
2024/04/10 01:47:36;;;;;;;;;;;6.00;99.90;;;;;;5451988;26;19948;-64
2024/04/10 01:50:08;;;;;;;;;;;5.90;99.90;;;;;;5442465;26;20308;-64
2024/04/10 01:52:35;;;;;;;;;;;5.90;99.90;;;;;;5457154;26;19977;-64
2024/04/10 01:55:02;;;;;;;;;;;6.00;99.90;;;;;;5472313;26;20300;-64
2024/04/10 01:57:29;;;;;;;;;;;6.00;99.90;;;;;;5454925;26;19928;-64
2024/04/10 01:59:56;;;;;;;;;;;6.00;99.90;;;;;;5475382;26;19959;-64
2024/04/10 02:02:36;;;;;;;;;;;5.90;99.90;;;;;;5446568;26;19966;-64
2024/04/10 02:05:03;;;;;;;;;;;5.90;99.90;;;;;;5479346;26;19940;-64
2024/04/10 02:07:35;;;;;;;;;;;5.90;99.90;;;;;;5480021;26;20029;-64
2024/04/10 02:10:01;;;;;;;;;;;5.90;99.90;;;;;;5457808;26;19955;-64
2024/04/10 02:12:28;;;;;;;;;;;5.90;99.90;;;;;;5470263;26;20448;-64
2024/04/10 02:14:55;;;;;;;;;;;5.90;99.90;;;;;;5460498;26;19932;-64
2024/04/10 02:17:22;;;;;;;;;;;5.90;99.90;;;;;;5482776;26;20372;-64
2024/04/10 02:19:52;;;;;;;;;;;5.90;99.90;;;;;;5466531;26;19940;-64
2024/04/10 02:22:18;;;;;;;;;;;5.90;99.90;;;;;;5469288;26;19928;-64
2024/04/10 02:24:54;;;;;;;;;;;6.00;99.90;;;;;;5453301;26;19953;-64
2024/04/10 02:27:25;;;;;;;;;;;6.00;99.90;;;;;;5472076;26;19932;-64
2024/04/10 02:29:58;;;;;;;;;;;5.90;99.90;;;;;;5445924;26;19927;-64
2024/04/10 02:32:25;;;;;;;;;;;5.90;99.90;;;;;;5473024;26;20435;-64
2024/04/10 02:34:53;;;;;;;;;;;5.90;99.90;;;;;;5454316;26;19937;-64
2024/04/10 02:37:19;;;;;;;;;;;5.90;99.90;;;;;;5455548;26;19928;-64
2024/04/10 02:39:52;;;;;;;;;;;5.90;99.90;;;;;;5470220;26;20450;-64
2024/04/10 02:42:18;;;;;;;;;;;5.90;99.90;;;;;;5439335;26;19935;-64
2024/04/10 02:44:50;;;;;;;;;;;5.90;99.90;;;;;;5461756;26;19936;-64
2024/04/10 02:47:22;;;;;;;;;;;5.90;99.90;;;;;;5475329;26;20376;-64
2024/04/10 02:49:49;;;;;;;;;;;5.90;99.90;;;;;;5409516;26;20385;-64
2024/04/10 02:52:16;;;;;;;;;;;5.90;99.90;;;;;;5458166;26;20384;-63
2024/04/10 02:54:43;;;;;;;;;;;5.90;99.90;;;;;;5477951;26;19936;-64
2024/04/10 02:57:10;;;;;;;;;;;5.80;99.90;;;;;;5479623;26;19999;-64
2024/04/10 02:59:42;;;;;;;;;;;5.80;99.90;;;;;;5473692;26;19940;-63
2024/04/10 03:02:09;;;;;;;;;;;5.90;99.90;;;;;;5450651;26;19933;-64
2024/04/10 03:04:40;;;;;;;;;;;5.90;99.90;;;;;;5475565;26;19938;-64
2024/04/10 03:07:09;;;;;;;;;;;5.90;99.90;;;;;;5423846;26;19940;-64
2024/04/10 03:09:36;;;;;;;;;;;5.90;99.90;;;;;;5432725;26;20488;-64
2024/04/10 03:12:08;;;;;;;;;;;5.90;99.90;;;;;;5423779;26;19940;-64
2024/04/10 03:14:37;;;;;;;;;;;5.90;99.90;;;;;;5467836;26;19976;-64
2024/04/10 03:17:05;;;;;;;;;;;6.00;99.90;;;;;;5472079;26;19928;-64
2024/04/10 03:19:32;;;;;;;;;;;5.90;99.90;;;;;;5448536;26;19928;-64
2024/04/10 03:21:58;;;;;;;;;;;5.90;99.90;;;;;;5454502;26;20394;-64
2024/04/10 03:24:25;;;;;;;;;;;5.90;99.90;;;;;;5452650;26;20364;-64
2024/04/10 03:26:52;;;;;;;;;;;5.90;99.90;;;;;;5441078;26;19958;-64
2024/04/10 03:29:19;;;;;;;;;;;5.90;99.90;;;;;;5479098;26;19948;-64
2024/04/10 03:31:46;;;;;;;;;;;5.90;99.90;;;;;;5417917;26;19942;-63
2024/04/10 03:34:12;;;;;;;;;;;5.90;99.90;;;;;;5462920;26;19939;-64
2024/04/10 03:36:39;;;;;;;;;;;5.90;99.90;;;;;;5468457;26;19928;-63
2024/04/10 03:39:11;;;;;;;;;;;5.90;99.90;;;;;;5427702;26;19928;-64
2024/04/10 03:41:43;;;;;;;;;;;5.90;99.90;;;;;;5473442;26;20294;-64
2024/04/10 03:44:10;;;;;;;;;;;5.90;99.90;;;;;;5421853;26;19932;-63
2024/04/10 03:46:39;;;;;;;;;;;5.90;99.90;;;;;;5470983;26;19935;-65
2024/04/10 03:49:06;;;;;;;;;;;5.80;99.90;;;;;;5439143;26;19939;-64
2024/04/10 03:51:33;;;;;;;;;;;5.80;99.90;;;;;;5473421;26;19935;-63
2024/04/10 03:54:00;;;;;;;;;;;5.90;99.90;;;;;;5425076;26;19936;-63
2024/04/10 03:56:28;;;;;;;;;;;5.80;99.90;;;;;;5473887;26;19939;-67
2024/04/10 03:58:55;;;;;;;;;;;5.90;99.90;;;;;;5418476;26;20278;-64
2024/04/10 04:01:22;;;;;;;;;;;5.90;99.90;;;;;;5434440;26;19936;-64
2024/04/10 04:03:49;;;;;;;;;;;5.90;99.90;;;;;;5471107;26;19935;-64
2024/04/10 04:06:15;;;;;;;;;;;5.90;99.90;;;;;;5446848;26;20395;-64
2024/04/10 04:08:47;;;;;;;;;;;5.90;99.90;;;;;;5456503;26;19928;-64
2024/04/10 04:11:14;;;;;;;;;;;6.00;99.90;;;;;;5469574;26;20400;-64
2024/04/10 04:13:41;;;;;;;;;;;6.00;99.90;;;;;;5477506;26;19928;-64
2024/04/10 04:16:08;;;;;;;;;;;5.90;99.90;;;;;;5473231;26;19928;-64
2024/04/10 04:18:36;;;;;;;;;;;5.90;99.90;;;;;;5443958;26;19935;-63
2024/04/10 04:21:03;;;;;;;;;;;6.00;99.90;;;;;;5436880;26;19978;-63
2024/04/10 04:23:30;;;;;;;;;;;6.00;99.90;;;;;;5451961;26;19928;-63
2024/04/10 04:25:57;;;;;;;;;;;6.00;99.90;;;;;;5468120;26;19936;-63
2024/04/10 04:28:29;;;;;;;;;;;6.10;99.90;;;;;;5472510;26;20312;-63
2024/04/10 04:30:56;;;;;;;;;;;6.10;99.90;;;;;;5478612;26;19931;-63
2024/04/10 04:33:23;;;;;;;;;;;6.10;99.90;;;;;;5476249;26;20287;-63
2024/04/10 04:35:50;;;;;;;;;;;6.10;99.90;;;;;;5483186;26;19935;-63
2024/04/10 04:38:17;;;;;;;;;;;6.10;99.90;;;;;;5439639;26;19928;-63
2024/04/10 04:40:44;;;;;;;;;;;6.10;99.90;;;;;;5477674;26;19928;-64
2024/04/10 04:43:11;;;;;;;;;;;6.10;99.90;;;;;;5465569;26;19930;-64
2024/04/10 04:45:38;;;;;;;;;;;6.10;99.90;;;;;;5447527;26;19928;-63
2024/04/10 04:48:11;;;;;;;;;;;6.20;99.90;;;;;;5422213;26;21540;-66
2024/04/10 04:50:44;;;;;;;;;;;6.10;99.90;;;;;;5466093;26;20300;-62
2024/04/10 04:53:11;;;;;;;;;;;6.20;99.90;;;;;;5439702;26;19933;-62
2024/04/10 04:55:39;;;;;;;;;;;6.20;99.90;;;;;;5447455;26;19948;-63
2024/04/10 04:58:07;;;;;;;;;;;6.20;99.90;;;;;;5472982;26;19939;-63
2024/04/10 05:00:40;;;;;;;;;;;6.30;99.90;;;;;;5420157;26;20008;-63
2024/04/10 05:03:13;;;;;;;;;;;6.30;99.90;;;;;;5455333;26;19954;-62
2024/04/10 05:05:42;;;;;;;;;;;6.40;99.90;;;;;;5452283;26;19968;-63
2024/04/10 05:08:10;;;;;;;;;;;6.30;99.90;;;;;;5456512;26;20399;-62
2024/04/10 05:10:38;;;;;;;;;;;6.20;99.90;;;;;;5480773;26;19928;-63
2024/04/10 05:13:04;;;;;;;;;;;6.20;99.90;;;;;;5435987;26;19951;-62
2024/04/10 05:15:31;;;;;;;;;;;6.20;99.90;;;;;;5467278;26;19929;-63
2024/04/10 05:17:58;;;;;;;;;;;6.20;99.90;;;;;;5482655;26;19936;-62
2024/04/10 05:20:25;;;;;;;;;;;6.20;99.90;;;;;;5472767;26;19996;-62
2024/04/10 05:22:52;;;;;;;;;;;6.10;99.90;;;;;;5473182;26;19928;-63
2024/04/10 05:25:19;;;;;;;;;;;6.10;99.90;;;;;;5477698;26;19935;-64
2024/04/10 05:27:48;;;;;;;;;;;6.10;99.90;;;;;;5474562;26;20296;-63
2024/04/10 05:30:16;;;;;;;;;;;6.20;99.90;;;;;;5475780;26;19927;-63
2024/04/10 05:32:43;;;;;;;;;;;6.20;99.90;;;;;;5454254;26;19928;-63
2024/04/10 05:35:15;;;;;;;;;;;6.20;99.90;;;;;;5461483;26;20265;-63
2024/04/10 05:37:47;;;;;;;;;;;6.20;99.90;;;;;;5481558;26;19942;-63
2024/04/10 05:40:18;;;;;;;;;;;6.30;99.90;;;;;;5486015;26;19991;-63
2024/04/10 05:42:45;;;;;;;;;;;6.20;99.90;;;;;;5471447;26;19997;-63
2024/04/10 05:45:13;;;;;;;;;;;6.30;99.90;;;;;;5466307;26;19934;-62
2024/04/10 05:47:41;;;;;;;;;;;6.20;99.90;;;;;;5481775;26;19935;-63
2024/04/10 05:50:08;;;;;;;;;;;6.30;99.90;;;;;;5469725;26;19940;-63
2024/04/10 05:52:36;;;;;;;;;;;6.30;99.90;;;;;;5468735;26;20281;-63
2024/04/10 05:55:04;;;;;;;;;;;6.30;99.90;;;;;;5477130;26;19928;-63
2024/04/10 05:57:36;;;;;;;;;;;6.30;99.90;;;;;;5475511;26;19934;-63
2024/04/10 06:00:03;;;;;;;;;;;6.40;99.90;;;;;;5476909;26;20279;-63
2024/04/10 06:02:40;;;;;;;;;;;6.40;99.90;;;;;;5477571;26;19935;-63
2024/04/10 06:05:16;;;;;;;;;;;6.30;99.90;;;;;;5475617;26;19997;-64
2024/04/10 06:07:44;;;;;;;;;;;6.30;99.90;;;;;;5472951;26;19929;-63
2024/04/10 06:10:11;;;;;;;;;;;6.30;99.90;;;;;;5468128;26;19952;-63
2024/04/10 06:12:38;;;;;;;;;;;6.30;99.90;;;;;;5472912;26;19928;-63
2024/04/10 06:15:05;;;;;;;;;;;6.40;99.90;;;;;;5463043;26;19932;-63
2024/04/10 06:17:37;;;;;;;;;;;6.40;99.90;;;;;;5465651;26;19928;-63
2024/04/10 06:20:11;;;;;;;;;;;6.40;99.90;;;;;;5443377;26;19928;-63
2024/04/10 06:22:42;;;;;;;;;;;6.40;99.90;;;;;;5473658;26;19939;-63
2024/04/10 06:25:09;;;;;;;;;;;6.50;99.90;;;;;;5478280;26;19939;-63
2024/04/10 06:27:36;;;;;;;;;;;6.50;99.90;;;;;;5469909;26;19928;-64
2024/04/10 06:30:03;;;;;;;;;;;6.40;99.90;;;;;;5477231;26;19928;-64
2024/04/10 06:32:31;;;;;;;;;;;6.50;99.90;;;;;;5470676;26;19928;-64
2024/04/10 06:34:58;;;;;;;;;;;6.50;99.90;;;;;;5479709;26;19928;-63
2024/04/10 06:37:24;;;;;;;;;;;6.50;99.90;;;;;;5471670;26;19936;-63
2024/04/10 06:39:51;;;;;;;;;;;6.50;99.90;;;;;;5462467;26;19936;-63
2024/04/10 06:42:18;;;;;;;;;;;6.60;99.90;;;;;;5469139;26;19928;-63
2024/04/10 06:44:44;;;;;;;;;;;6.60;99.90;;;;;;5470945;26;19940;-63
2024/04/10 06:47:11;;;;;;;;;;;6.70;99.90;;;;;;5468258;26;19964;-64
2024/04/10 06:49:38;;;;;;;;;;;6.70;99.90;;;;;;5454221;26;19928;-64
2024/04/10 06:52:05;;;;;;;;;;;6.70;99.90;;;;;;5475199;26;20388;-64
2024/04/10 06:54:32;;;;;;;;;;;6.70;99.90;;;;;;5475703;26;19928;-63
2024/04/10 06:57:00;;;;;;;;;;;6.80;99.90;;;;;;5437467;26;20314;-63
2024/04/10 06:59:32;;;;;;;;;;;6.80;99.90;;;;;;5442933;26;19931;-63
2024/04/10 07:01:59;;;;;;;;;;;6.80;99.90;;;;;;5426099;26;19996;-64
2024/04/10 07:04:31;;;;;;;;;;;6.80;99.90;;;;;;5470188;26;19972;-63
2024/04/10 07:07:05;;;;;;;;;;;6.80;99.90;;;;;;5479626;26;20001;-64
2024/04/10 07:09:32;;;;;;;;;;;6.90;99.90;;;;;;5475781;26;20341;-63
2024/04/10 07:11:59;;;;;;;;;;;6.90;99.90;;;;;;5482634;26;19928;-63
2024/04/10 07:14:27;;;;;;;;;;;6.90;99.90;;;;;;5477316;26;19932;-63
2024/04/10 07:16:54;;;;;;;;;;;6.90;99.90;;;;;;5445211;26;20409;-63
2024/04/10 07:19:26;;;;;;;;;;;7.00;99.90;;;;;;5474195;26;19939;-63
2024/04/10 07:21:53;;;;;;;;;;;6.90;99.90;;;;;;5446013;26;20659;-63
2024/04/10 07:24:20;;;;;;;;;;;6.90;99.90;;;;;;5475504;26;19947;-63
2024/04/10 07:26:47;;;;;;;;;;;6.90;99.90;;;;;;5463086;26;19932;-64
2024/04/10 07:29:13;;;;;;;;;;;6.90;99.90;;;;;;5450736;26;19929;-64
2024/04/10 07:31:45;;;;;;;;;;;7.00;99.90;;;;;;5471110;26;19932;-63
2024/04/10 07:34:14;;;;;;;;;;;7.00;99.90;;;;;;5465124;26;19928;-63
2024/04/10 07:36:41;;;;;;;;;;;7.00;99.90;;;;;;5424984;26;19951;-63
2024/04/10 07:39:09;;;;;;;;;;;7.00;99.90;;;;;;5447570;26;20262;-63
2024/04/10 07:41:36;;;;;;;;;;;7.00;99.90;;;;;;5438195;26;19997;-63
2024/04/10 07:44:07;;;;;;;;;;;7.00;99.90;;;;;;5475821;26;19960;-63
2024/04/10 07:46:39;;;;;;;;;;;7.10;99.90;;;;;;5446196;26;19936;-64
2024/04/10 07:49:09;;;;;;;;;;;7.10;99.90;;;;;;5449858;26;19941;-63
2024/04/10 07:51:36;;;;;;;;;;;7.10;99.90;;;;;;5468380;26;20478;-63
2024/04/10 07:54:07;;;;;;;;;;;7.20;99.90;;;;;;5474968;26;19928;-64
2024/04/10 07:56:39;;;;;;;;;;;7.20;99.90;;;;;;5432062;26;19938;-64
2024/04/10 07:59:06;;;;;;;;;;;7.20;99.90;;;;;;5465836;26;20276;-64
2024/04/10 08:01:33;;;;;;;;;;;7.20;99.90;;;;;;5471248;26;19975;-64
2024/04/10 08:04:06;;;;;;;;;;;7.30;99.90;;;;;;5469921;26;19935;-63
2024/04/10 08:06:36;;;;;;;;;;;7.40;99.90;;;;;;5468732;26;19996;-63
2024/04/10 08:09:08;;;;;;;;;;;7.50;99.90;;;;;;5472556;26;20380;-64
2024/04/10 08:11:40;;;;;;;;;;;7.50;99.90;;;;;;5473689;26;19927;-63
2024/04/10 08:14:12;;;;;;;;;;;7.60;99.90;;;;;;5447033;26;19928;-63
2024/04/10 08:16:39;;;;;;;;;;;7.80;99.90;;;;;;5473047;26;20282;-63
2024/04/10 08:19:06;;;;;;;;;;;7.70;99.90;;;;;;5444089;26;20365;-63
2024/04/10 08:21:39;;;;;;;;;;;7.80;99.90;;;;;;5471727;26;20435;-63
2024/04/10 08:24:06;;;;;;;;;;;7.80;99.90;;;;;;5471671;26;19973;-63
2024/04/10 08:26:34;;;;;;;;;;;7.90;99.90;;;;;;5470200;26;19996;-63
2024/04/10 08:29:02;;;;;;;;;;;7.90;99.90;;;;;;5463005;26;20369;-64
2024/04/10 08:31:30;;;;;;;;;;;7.90;99.90;;;;;;5471251;26;19928;-63
2024/04/10 08:33:56;;;;;;;;;;;8.00;99.90;;;;;;5472967;26;19928;-63
2024/04/10 08:36:29;;;;;;;;;;;8.00;99.90;;;;;;5470886;26;19940;-63
2024/04/10 08:38:57;;;;;;;;;;;8.00;99.90;;;;;;5450666;26;19960;-63
2024/04/10 08:41:29;;;;;;;;;;;8.00;99.90;;;;;;5476991;26;20057;-64
2024/04/10 08:43:56;;;;;;;;;;;8.10;99.90;;;;;;5474385;26;20294;-64
2024/04/10 08:46:26;;;;;;;;;;;8.20;99.90;;;;;;5476574;26;19941;-64
2024/04/10 08:48:56;;;;;;;;;;;8.20;99.90;;;;;;5411086;26;20269;-63
2024/04/10 08:51:25;;;;;;;;;;;8.20;99.90;;;;;;5470542;26;20277;-64
2024/04/10 08:53:54;;;;;;;;;;;8.20;99.90;;;;;;5455845;26;20031;-64
2024/04/10 08:56:21;;;;;;;;;;;8.20;99.90;;;;;;5473117;26;19931;-64
2024/04/10 08:58:47;;;;;;;;;;;8.30;99.90;;;;;;5464556;26;20272;-64
2024/04/10 09:01:23;;;;;;;;;;;8.40;99.90;;;;;;5468836;26;19928;-64
2024/04/10 09:03:55;;;;;;;;;;;8.50;99.90;;;;;;5472233;26;19956;-64
2024/04/10 09:06:22;;;;;;;;;;;8.50;99.90;;;;;;5445543;26;19928;-64
2024/04/10 09:08:56;;;;;;;;;;;8.50;99.90;;;;;;5470490;26;19940;-64
2024/04/10 09:11:28;;;;;;;;;;;8.50;99.90;;;;;;5466310;26;19940;-64
2024/04/10 09:14:04;;;;;;;;;;;8.50;99.90;;;;;;5439999;26;19952;-64
2024/04/10 09:16:31;;;;;;;;;;;8.60;99.90;;;;;;5461659;26;19932;-64
2024/04/10 09:19:08;;;;;;;;;;;8.70;99.90;;;;;;5460369;26;19935;-64
2024/04/10 09:21:34;;;;;;;;;;;8.70;99.90;;;;;;5435611;26;20461;-63
2024/04/10 09:24:03;;;;;;;;;;;8.70;99.90;;;;;;5452076;26;19934;-64
2024/04/10 09:26:35;;;;;;;;;;;8.70;99.90;;;;;;5444852;26;19932;-64
2024/04/10 09:29:08;;;;;;;;;;;8.70;99.90;;;;;;5472388;26;19933;-65
2024/04/10 09:31:35;;;;;;;;;;;8.80;99.90;;;;;;5442898;26;19940;-64
2024/04/10 09:34:02;;;;;;;;;;;8.80;99.90;;;;;;5469814;26;19929;-63
2024/04/10 09:36:30;;;;;;;;;;;8.90;99.90;;;;;;5448180;26;20648;-64
2024/04/10 09:38:58;;;;;;;;;;;8.90;99.90;;;;;;5462332;26;20077;-64
2024/04/10 09:41:31;;;;;;;;;;;9.00;99.90;;;;;;5429538;26;19940;-64
2024/04/10 09:43:58;;;;;;;;;;;9.00;99.90;;;;;;5463440;26;19971;-64
2024/04/10 09:46:33;;;;;;;;;;;9.00;99.90;;;;;;5461335;26;19939;-63
2024/04/10 09:49:12;;;;;;;;;;;9.10;99.90;;;;;;5463563;26;20014;-64
2024/04/10 09:51:40;;;;;;;;;;;9.20;99.90;;;;;;5477565;26;19993;-64
2024/04/10 09:54:08;;;;;;;;;;;9.30;99.90;;;;;;5468625;26;19932;-64
2024/04/10 09:56:38;;;;;;;;;;;9.40;99.90;;;;;;5447857;26;19971;-64
2024/04/10 09:59:07;;;;;;;;;;;9.50;99.90;;;;;;5478962;26;19941;-63
2024/04/10 10:01:36;;;;;;;;;;;9.60;99.90;;;;;;5475564;26;19928;-64
2024/04/10 10:04:03;;;;;;;;;;;9.70;99.90;;;;;;5439588;26;20004;-64
2024/04/10 10:06:34;;;;;;;;;;;9.70;99.90;;;;;;5484045;26;19962;-63
2024/04/10 10:09:01;;;;;;;;;;;9.90;99.90;;;;;;5451153;26;19963;-64
2024/04/10 10:11:33;;;;;;;;;;;10.00;99.90;;;;;;5461932;26;19932;-63
2024/04/10 10:14:03;;;;;;;;;;;10.10;99.90;;;;;;5480013;26;19957;-64
2024/04/10 10:16:34;;;;;;;;;;;10.20;99.90;;;;;;5470357;26;19936;-64
2024/04/10 10:19:04;;;;;;;;;;;10.20;99.90;;;;;;5471879;26;20379;-64
2024/04/10 10:21:32;;;;;;;;;;;10.30;99.90;;;;;;5477158;26;20384;-64
2024/04/10 10:24:03;;;;;;;;;;;10.20;99.90;;;;;;5476782;26;20000;-63
2024/04/10 10:26:30;;;;;;;;;;;10.30;99.90;;;;;;5458815;26;19940;-63
2024/04/10 10:29:05;;;;;;;;;;;10.50;99.90;;;;;;5470477;26;19997;-64
2024/04/10 10:31:33;;;;;;;;;;;10.40;99.90;;;;;;5456108;26;19941;-62
2024/04/10 10:34:00;;;;;;;;;;;10.60;99.90;;;;;;5471830;26;19940;-63
2024/04/10 10:36:33;;;;;;;;;;;10.80;99.90;;;;;;5471684;26;20387;-63
2024/04/10 10:39:08;;;;;;;;;;;11.10;99.90;;;;;;5464572;26;20474;-64
2024/04/10 10:41:35;;;;;;;;;;;11.30;99.90;;;;;;5470144;26;19939;-63
2024/04/10 10:44:02;;;;;;;;;;;11.40;99.90;;;;;;5474556;26;19979;-64
2024/04/10 10:46:34;;;;;;;;;;;11.40;99.90;;;;;;5474054;26;19935;-63
2024/04/10 10:49:04;;;;;;;;;;;11.60;99.90;;;;;;5471285;26;19939;-64
2024/04/10 10:51:31;;;;;;;;;;;11.80;99.90;;;;;;5424027;26;19935;-63
2024/04/10 10:53:58;;;;;;;;;;;11.90;99.90;;;;;;5466637;26;19927;-67
2024/04/10 10:56:28;;;;;;;;;;;11.90;99.90;;;;;;5475819;26;19939;-71
2024/04/10 10:59:06;;;;;;;;;;;11.90;99.90;;;;;;5470778;26;19935;-64
2024/04/10 11:01:34;;;;;;;;;;;12.00;99.90;;;;;;5440528;26;19997;-63
2024/04/10 11:04:08;;;;;;;;;;;12.10;99.90;;;;;;5429033;26;19969;-63
2024/04/10 11:06:40;;;;;;;;;;;12.20;99.90;;;;;;5472041;26;20447;-64
2024/04/10 11:09:13;;;;;;;;;;;12.20;99.90;;;;;;5476343;26;19932;-64
2024/04/10 11:11:40;;;;;;;;;;;12.20;99.90;;;;;;5440468;26;19935;-64
2024/04/10 11:14:21;;;;;;;;;;;12.10;99.90;;;;;;5476226;26;20389;-63
2024/04/10 11:16:59;;;;;;;;;;;11.90;99.90;;;;;;5473098;26;19928;-64
2024/04/10 11:19:26;;;;;;;;;;;12.00;99.90;;;;;;5471297;26;19928;-64
2024/04/10 11:21:53;;;;;;;;;;;12.00;99.90;;;;;;5469812;26;19942;-63
2024/04/10 11:24:23;;;;;;;;;;;12.00;99.90;;;;;;5471403;26;19997;-64
2024/04/10 11:26:50;;;;;;;;;;;11.90;99.90;;;;;;5438759;26;19934;-63
2024/04/10 11:29:17;;;;;;;;;;;11.80;99.90;;;;;;5470816;26;19956;-64
2024/04/10 11:31:43;;;;;;;;;;;11.60;99.90;;;;;;5475995;26;19940;-63
2024/04/10 11:34:12;;;;;;;;;;;11.60;99.90;;;;;;5463653;26;19939;-63
2024/04/10 11:36:39;;;;;;;;;;;11.60;99.90;;;;;;5450153;26;19928;-63
2024/04/10 11:39:07;;;;;;;;;;;11.60;99.90;;;;;;5478326;26;19928;-64
2024/04/10 11:41:34;;;;;;;;;;;11.60;99.90;;;;;;5447201;26;19929;-63
2024/04/10 11:44:05;;;;;;;;;;;11.60;99.90;;;;;;5450934;26;19928;-63
2024/04/10 11:46:33;;;;;;;;;;;11.50;99.90;;;;;;5473030;26;20000;-63
2024/04/10 11:48:59;;;;;;;;;;;11.60;99.90;;;;;;5478126;26;19978;-63
2024/04/10 11:51:26;;;;;;;;;;;11.80;99.90;;;;;;5449214;26;19928;-63
2024/04/10 11:53:53;;;;;;;;;;;11.80;99.90;;;;;;5439762;26;19940;-63
2024/04/10 11:56:27;;;;;;;;;;;11.80;99.90;;;;;;5479805;26;19936;-63
2024/04/10 11:58:54;;;;;;;;;;;12.10;99.90;;;;;;5466763;26;19928;-63
2024/04/10 12:01:22;;;;;;;;;;;12.40;99.90;;;;;;5475971;26;19967;-63
2024/04/10 12:03:48;;;;;;;;;;;12.60;99.90;;;;;;5453807;26;19997;-63
2024/04/10 12:06:15;;;;;;;;;;;12.80;99.90;;;;;;5472635;26;19928;-64
2024/04/10 12:08:47;;;;;;;;;;;13.10;99.90;;;;;;5453163;26;19928;-64
2024/04/10 12:11:14;;;;;;;;;;;13.40;99.90;;;;;;5479157;26;19964;-63
2024/04/10 12:13:42;;;;;;;;;;;13.60;99.90;;;;;;5467197;26;20385;-63
2024/04/10 12:16:10;;;;;;;;;;;13.80;99.90;;;;;;5432636;26;19928;-63
2024/04/10 12:18:37;;;;;;;;;;;13.80;99.90;;;;;;5451931;26;19939;-64
2024/04/10 12:21:09;;;;;;;;;;;13.70;99.90;;;;;;5450099;26;19943;-63
2024/04/10 12:23:35;;;;;;;;;;;13.50;99.90;;;;;;5467777;26;19960;-64
2024/04/10 12:26:02;;;;;;;;;;;13.30;99.90;;;;;;5437412;26;19938;-64
2024/04/10 12:28:29;;;;;;;;;;;13.10;99.90;;;;;;5470951;26;19956;-64
2024/04/10 12:31:01;;;;;;;;;;;13.00;99.90;;;;;;5450191;26;19935;-63
2024/04/10 12:38:03;;;;;;;;;;;13.20;99.90;;;;;;5486752;26;19974;-63
2024/04/10 12:40:35;;;;;;;;;;;13.20;99.90;;;;;;5499852;26;19964;-63
2024/04/10 12:43:08;;;;;;;;;;;13.50;99.90;;;;;;5503954;26;20611;-63
2024/04/10 12:45:41;;;;;;;;;;;13.60;99.90;;;;;;5494461;26;20612;-63
2024/04/10 12:48:08;;;;;;;;;;;13.70;99.90;;;;;;5503837;26;19935;-62
2024/04/10 12:50:39;;;;;;;;;;;13.70;99.90;;;;;;5472653;26;19948;-63
2024/04/10 12:53:06;;;;;;;;;;;13.60;99.90;;;;;;5495779;25;19935;-63
2024/04/10 12:55:33;;;;;;;;;;;13.50;99.90;;;;;;5489028;26;19935;-62
2024/04/10 12:58:00;;;;;;;;;;;13.30;99.90;;;;;;5488206;26;19940;-62
2024/04/10 13:00:32;;;;;;;;;;;13.30;99.90;;;;;;5493184;26;19934;-63
2024/04/10 13:02:58;;;;;;;;;;;13.40;99.90;;;;;;5499828;26;19960;-63
2024/04/10 13:05:25;;;;;;;;;;;13.50;99.90;;;;;;5497601;25;19928;-63
2024/04/10 13:07:52;;;;;;;;;;;13.60;99.90;;;;;;5500530;26;19996;-62
2024/04/10 13:10:24;;;;;;;;;;;13.80;99.90;;;;;;5473687;26;20272;-62
2024/04/10 13:12:51;;;;;;;;;;;14.00;99.90;;;;;;5504445;26;19934;-63
2024/04/10 13:15:18;;;;;;;;;;;14.10;99.90;;;;;;5497413;26;19940;-63
2024/04/10 13:17:45;;;;;;;;;;;14.20;99.90;;;;;;5502983;25;20272;-62
2024/04/10 13:20:12;;;;;;;;;;;14.20;99.90;;;;;;5487782;26;19929;-62
2024/04/10 13:22:39;;;;;;;;;;;14.30;99.90;;;;;;5495072;26;19957;-62
2024/04/10 13:25:11;;;;;;;;;;;14.40;99.90;;;;;;5496976;26;20399;-63
2024/04/10 13:27:38;;;;;;;;;;;14.40;99.90;;;;;;5493506;26;19975;-63
2024/04/10 13:30:05;;;;;;;;;;;14.50;99.90;;;;;;5488443;26;20305;-63
2024/04/10 13:32:37;;;;;;;;;;;14.50;99.90;;;;;;5491609;25;19928;-63
2024/04/10 13:35:05;;;;;;;;;;;14.60;99.90;;;;;;5486125;26;20311;-62
2024/04/10 13:37:37;;;;;;;;;;;14.70;99.90;;;;;;5482968;25;19942;-62
2024/04/10 13:40:09;;;;;;;;;;;14.80;99.90;;;;;;5492532;26;20303;-63
2024/04/10 13:42:36;;;;;;;;;;;14.80;99.90;;;;;;5492499;25;19928;-62
2024/04/10 13:45:08;;;;;;;;;;;14.90;99.90;;;;;;5487911;25;19928;-62
2024/04/10 13:47:40;;;;;;;;;;;14.90;99.90;;;;;;5478148;26;19996;-62
2024/04/10 13:50:13;;;;;;;;;;;15.00;99.90;;;;;;5468555;26;20384;-63
2024/04/10 13:52:39;;;;;;;;;;;15.10;99.90;;;;;;5475577;26;19928;-62
2024/04/10 13:55:11;;;;;;;;;;;15.10;99.90;;;;;;5474442;26;19939;-62
2024/04/10 13:57:38;;;;;;;;;;;15.00;99.60;;;;;;5479196;26;19939;-62
2024/04/10 14:00:06;;;;;;;;;;;14.80;99.90;;;;;;5473805;26;19928;-62
2024/04/10 14:02:37;;;;;;;;;;;14.60;99.80;;;;;;5474725;26;19928;-62
2024/04/10 14:05:05;;;;;;;;;;;14.50;99.90;;;;;;5483604;26;20295;-65
2024/04/10 14:07:31;;;;;;;;;;;14.30;98.40;;;;;;5463370;26;19928;-63
2024/04/10 14:09:58;;;;;;;;;;;14.10;98.70;;;;;;5474935;26;19952;-63
2024/04/10 14:12:30;;;;;;;;;;;14.20;99.90;;;;;;5472742;26;19961;-63
2024/04/10 14:14:56;;;;;;;;;;;14.30;98.10;;;;;;5467084;26;20350;-63
2024/04/10 14:17:28;;;;;;;;;;;14.40;99.90;;;;;;5471886;26;20436;-63
2024/04/10 14:19:55;;;;;;;;;;;14.50;99.90;;;;;;5469286;26;19934;-63
2024/04/10 14:22:27;;;;;;;;;;;14.70;99.00;;;;;;5480625;26;19957;-63
2024/04/10 14:24:59;;;;;;;;;;;14.90;97.80;;;;;;5478119;26;19929;-62
2024/04/10 14:27:31;;;;;;;;;;;15.10;98.80;;;;;;5447561;26;20316;-63
2024/04/10 14:30:03;;;;;;;;;;;15.30;99.20;;;;;;5485592;26;19928;-63
2024/04/10 14:32:31;;;;;;;;;;;15.40;98.60;;;;;;5481169;26;19956;-62
2024/04/10 14:35:03;;;;;;;;;;;15.40;96.90;;;;;;5481355;26;19939;-63
2024/04/10 14:37:30;;;;;;;;;;;15.30;97.10;;;;;;5485362;26;20380;-63
2024/04/10 14:40:01;;;;;;;;;;;15.30;96.90;;;;;;5478468;26;19939;-63